createdAt,value
2023-01-23T04:46:25.068Z,0.50
2023-01-23T04:48:51.688Z,0.50
2023-01-23T04:51:18.335Z,0.50
2023-01-23T04:53:45.000Z,0.50
2023-01-23T04:56:11.593Z,0.60
2023-01-23T04:58:38.329Z,0.50
2023-01-23T05:01:06.280Z,0.50
2023-01-23T05:03:34.730Z,0.50
2023-01-23T05:06:01.463Z,0.40
2023-01-23T05:08:28.086Z,0.20
2023-01-23T05:10:54.937Z,0.30
2023-01-23T05:13:21.537Z,0.30
2023-01-23T05:15:48.249Z,0.20
2023-01-23T05:18:14.915Z,0.40
2023-01-23T05:20:41.608Z,0.40
2023-01-23T05:23:08.883Z,0.40
2023-01-23T05:25:35.598Z,0.50
2023-01-23T05:28:02.295Z,0.50
2023-01-23T05:30:28.971Z,0.50
2023-01-23T05:32:55.569Z,0.40
2023-01-23T05:35:22.183Z,0.50
2023-01-23T05:37:51.472Z,0.60
2023-01-23T05:40:19.764Z,0.60
2023-01-23T05:42:47.681Z,0.60
2023-01-23T05:45:14.469Z,0.50
2023-01-23T05:47:41.481Z,0.50
2023-01-23T05:50:12.605Z,0.50
2023-01-23T05:52:39.290Z,0.50
2023-01-23T05:55:06.337Z,0.50
2023-01-23T05:57:34.596Z,0.50
2023-01-23T06:00:01.289Z,0.40
2023-01-23T06:02:27.976Z,0.50
2023-01-23T06:04:55.856Z,0.50
2023-01-23T06:07:22.691Z,0.60
2023-01-23T06:09:49.332Z,0.50
2023-01-23T06:12:16.005Z,0.50
2023-01-23T06:14:42.629Z,0.60
2023-01-23T06:17:11.726Z,0.50
2023-01-23T06:19:38.375Z,0.50
2023-01-23T06:22:04.983Z,0.40
2023-01-23T06:24:31.646Z,0.50
2023-01-23T06:26:58.261Z,0.30
2023-01-23T06:29:24.931Z,0.40
2023-01-23T06:31:51.617Z,0.40
2023-01-23T06:34:18.293Z,0.40
2023-01-23T06:36:46.177Z,0.40
2023-01-23T06:39:15.103Z,0.40
2023-01-23T06:41:42.384Z,0.50
2023-01-23T06:44:09.032Z,0.60
2023-01-23T06:46:35.753Z,0.60
2023-01-23T06:49:05.211Z,0.50
2023-01-23T06:51:33.304Z,0.40
2023-01-23T06:54:00.085Z,0.60
2023-01-23T06:56:26.874Z,0.50
2023-01-23T06:58:53.556Z,0.40
2023-01-23T07:01:20.586Z,0.50
2023-01-23T07:03:47.602Z,0.60
2023-01-23T07:06:15.498Z,0.70
2023-01-23T07:08:42.767Z,0.70
2023-01-23T07:11:10.332Z,0.70
2023-01-23T07:13:37.098Z,0.80
2023-01-23T07:16:04.632Z,0.80
2023-01-23T07:18:32.703Z,0.80
2023-01-23T07:21:00.693Z,0.80
2023-01-23T07:23:27.500Z,0.90
2023-01-23T07:25:59.955Z,1.10
2023-01-23T07:28:27.212Z,1.10
2023-01-23T07:30:54.010Z,1.20
2023-01-23T07:33:20.662Z,1.20
2023-01-23T07:35:47.295Z,1.10
2023-01-23T07:38:13.902Z,1.10
2023-01-23T07:40:42.825Z,1.00
2023-01-23T07:43:09.667Z,0.90
2023-01-23T07:45:36.771Z,0.90
2023-01-23T07:48:04.138Z,1.10
2023-01-23T07:50:30.824Z,0.90
2023-01-23T07:52:57.496Z,0.90
2023-01-23T07:55:24.195Z,0.70
2023-01-23T07:57:50.842Z,0.80
2023-01-23T08:00:18.013Z,1.00
2023-01-23T08:02:44.929Z,0.90
2023-01-23T08:05:11.733Z,0.90
2023-01-23T08:07:38.500Z,0.80
2023-01-23T08:10:05.941Z,1.10
2023-01-23T08:12:32.565Z,1.10
2023-01-23T08:14:59.186Z,1.10
2023-01-23T08:17:25.923Z,1.00
2023-01-23T08:19:52.709Z,1.00
2023-01-23T08:22:19.355Z,1.00
2023-01-23T08:24:46.529Z,1.10
2023-01-23T08:27:13.252Z,1.20
2023-01-23T08:29:39.936Z,1.20
2023-01-23T08:32:06.669Z,1.30
2023-01-23T08:34:33.326Z,1.20
2023-01-23T08:36:59.952Z,1.10
2023-01-23T08:39:26.594Z,1.30
2023-01-23T08:41:53.255Z,1.00
2023-01-23T08:44:19.895Z,0.80
2023-01-23T08:46:46.659Z,0.80
2023-01-23T08:49:13.639Z,0.90
2023-01-23T08:51:40.278Z,0.90
2023-01-23T08:54:07.048Z,1.10
2023-01-23T08:56:33.655Z,1.00
2023-01-23T08:59:00.344Z,1.20
2023-01-23T09:01:27.629Z,1.40
2023-01-23T09:03:54.961Z,1.60
2023-01-23T09:06:23.100Z,1.70
2023-01-23T09:08:50.032Z,1.70
2023-01-23T09:11:17.877Z,1.30
2023-01-23T09:13:46.398Z,1.60
2023-01-23T09:16:13.179Z,1.70
2023-01-23T09:18:39.921Z,1.70
2023-01-23T09:21:12.781Z,1.70
2023-01-23T09:23:39.619Z,1.60
2023-01-23T09:26:08.996Z,1.90
2023-01-23T09:28:36.992Z,1.60
2023-01-23T09:31:08.761Z,1.40
2023-01-23T09:33:35.878Z,1.40
2023-01-23T09:36:03.692Z,1.60
2023-01-23T09:38:33.333Z,1.60
2023-01-23T09:41:06.725Z,1.60
2023-01-23T09:43:33.353Z,1.60
2023-01-23T09:46:09.003Z,1.70
2023-01-23T09:48:44.223Z,1.80
2023-01-23T09:51:26.226Z,1.90
2023-01-23T09:53:58.737Z,1.80
2023-01-23T09:56:41.203Z,1.60
2023-01-23T09:59:07.734Z,1.70
2023-01-23T10:01:34.416Z,1.70
2023-01-23T10:04:01.891Z,1.80
2023-01-23T10:06:32.092Z,1.80
2023-01-23T10:09:17.399Z,1.80
2023-01-23T10:12:17.141Z,1.90
2023-01-23T10:15:07.902Z,1.80
2023-01-23T10:17:52.623Z,1.70
2023-01-23T10:20:39.330Z,1.70
2023-01-23T10:23:24.801Z,1.70
2023-01-23T10:25:51.631Z,1.70
2023-01-23T10:28:38.828Z,1.50
2023-01-23T10:31:20.045Z,1.50
2023-01-23T10:33:54.443Z,1.80
2023-01-23T10:36:54.835Z,1.90
2023-01-23T10:39:34.767Z,2.10
2023-01-23T10:42:02.697Z,2.00
2023-01-23T10:44:29.969Z,1.70
2023-01-23T10:47:01.880Z,1.70
2023-01-23T10:49:40.176Z,1.80
2023-01-23T10:52:31.750Z,1.80
2023-01-23T10:54:58.765Z,1.70
2023-01-23T10:57:30.966Z,1.80
2023-01-23T11:00:04.965Z,1.90
2023-01-23T11:02:37.300Z,2.20
2023-01-23T11:05:52.455Z,2.10
2023-01-23T11:08:29.297Z,2.00
2023-01-23T11:11:15.893Z,2.20
2023-01-23T11:13:44.261Z,2.10
2023-01-23T11:16:21.804Z,2.10
2023-01-23T11:19:04.635Z,2.00
2023-01-23T11:21:37.043Z,2.00
2023-01-23T11:24:38.125Z,2.00
2023-01-23T11:27:30.885Z,1.80
2023-01-23T11:30:04.334Z,1.80
2023-01-23T11:32:35.313Z,1.90
2023-01-23T11:35:15.684Z,2.10
2023-01-23T11:37:42.706Z,2.00
2023-01-23T11:40:20.371Z,2.00
2023-01-23T11:42:47.584Z,2.00
2023-01-23T11:45:50.479Z,2.10
2023-01-23T11:48:20.292Z,2.00
2023-01-23T11:50:55.957Z,2.10
2023-01-23T11:53:41.788Z,2.10
2023-01-23T11:56:34.898Z,2.00
2023-01-23T11:59:21.865Z,2.00
2023-01-23T12:02:03.073Z,2.10
2023-01-23T12:04:57.535Z,2.40
2023-01-23T12:07:25.319Z,2.40
2023-01-23T12:10:26.281Z,2.50
2023-01-23T12:13:32.015Z,2.70
2023-01-23T12:16:15.029Z,2.90
2023-01-23T12:18:49.049Z,2.80
2023-01-23T12:21:22.752Z,3.00
2023-01-23T12:24:00.887Z,2.40
2023-01-23T12:26:31.027Z,2.40
2023-01-23T12:29:08.136Z,2.60
2023-01-23T12:31:37.784Z,2.60
2023-01-23T12:34:16.300Z,2.80
2023-01-23T12:37:29.898Z,2.80
2023-01-23T12:40:12.402Z,2.60
2023-01-23T12:42:55.594Z,2.30
2023-01-23T12:45:25.307Z,2.40
2023-01-23T12:48:12.108Z,2.30
2023-01-23T12:51:20.599Z,2.40
2023-01-23T12:53:51.231Z,2.30
2023-01-23T12:56:41.698Z,2.60
2023-01-23T12:59:20.607Z,2.50
2023-01-23T13:02:06.253Z,2.40
2023-01-23T13:05:11.971Z,2.40
2023-01-23T13:08:10.230Z,2.30
2023-01-23T13:11:21.837Z,2.30
2023-01-23T13:13:48.651Z,2.30
2023-01-23T13:16:20.048Z,2.30
2023-01-23T13:19:16.245Z,2.10
2023-01-23T13:22:04.759Z,2.20
2023-01-23T13:25:12.485Z,2.40
2023-01-23T13:27:58.768Z,2.30
2023-01-23T13:30:36.200Z,2.20
2023-01-23T13:33:05.864Z,2.40
2023-01-23T13:35:47.447Z,2.20
2023-01-23T13:38:25.386Z,2.10
2023-01-23T13:41:14.460Z,2.20
2023-01-23T13:43:55.870Z,2.30
2023-01-23T13:46:25.285Z,2.30
2023-01-23T14:21:46.273Z,2.70
2023-01-23T14:24:23.353Z,2.50
2023-01-23T14:26:52.732Z,2.40
2023-01-23T14:29:25.077Z,2.40
2023-01-23T14:31:52.463Z,2.40
2023-01-23T14:34:21.813Z,2.30
2023-01-23T14:37:10.592Z,2.40
2023-01-23T14:39:39.776Z,2.40
2023-01-23T14:42:13.849Z,2.50
2023-01-23T14:44:46.318Z,2.40
2023-01-23T14:47:25.386Z,2.60
2023-01-23T14:49:52.561Z,2.50
2023-01-23T14:52:25.742Z,2.70
2023-01-23T14:54:54.342Z,2.50
2023-01-23T14:57:24.020Z,2.70
2023-01-23T14:59:54.764Z,2.70
2023-01-23T15:02:36.383Z,2.70
2023-01-23T15:05:12.132Z,2.60
2023-01-23T15:07:51.044Z,2.50
2023-01-23T15:10:23.508Z,2.60
2023-01-23T15:13:05.825Z,2.80
2023-01-23T15:15:34.438Z,2.80
2023-01-23T15:18:02.050Z,2.70
2023-01-23T15:20:41.220Z,2.70
2023-01-23T15:23:37.132Z,2.70
2023-01-23T15:26:14.092Z,2.90
2023-01-23T15:28:40.953Z,3.00
2023-01-23T15:31:34.505Z,3.00
2023-01-23T15:34:16.540Z,3.10
2023-01-23T15:36:47.578Z,3.30
2023-01-23T15:39:24.965Z,3.20
2023-01-23T15:42:00.319Z,3.10
2023-01-23T15:44:29.215Z,3.20
2023-01-23T15:46:57.190Z,3.20
2023-01-23T15:49:26.161Z,3.30
2023-01-23T15:51:59.586Z,3.20
2023-01-23T15:54:36.203Z,3.30
2023-01-23T15:57:08.894Z,3.20
2023-01-23T15:59:36.366Z,3.10
2023-01-23T16:02:03.317Z,3.20
2023-01-23T16:04:30.008Z,3.30
2023-01-23T16:06:59.461Z,3.40
2023-01-23T16:09:32.647Z,3.10
2023-01-23T16:12:00.338Z,3.20
2023-01-23T16:14:27.505Z,3.30
2023-01-23T16:16:55.318Z,3.30
2023-01-23T16:19:23.298Z,3.10
2023-01-23T16:22:03.908Z,3.20
2023-01-23T16:24:39.084Z,3.30
2023-01-23T16:27:06.947Z,3.20
2023-01-23T16:29:34.594Z,3.10
2023-01-23T16:32:02.997Z,3.10
2023-01-23T16:34:29.725Z,3.00
2023-01-23T16:36:59.137Z,3.00
2023-01-23T16:39:29.532Z,2.90
2023-01-23T16:41:56.234Z,3.00
2023-01-23T16:44:23.952Z,3.00
2023-01-23T16:46:52.667Z,3.10
2023-01-23T16:49:20.095Z,3.00
2023-01-23T16:51:56.225Z,2.90
2023-01-23T16:54:23.561Z,2.80
2023-01-23T16:56:51.574Z,2.90
2023-01-23T16:59:28.243Z,2.90
2023-01-23T17:01:55.595Z,2.80
2023-01-23T17:04:22.431Z,2.90
2023-01-23T17:06:50.063Z,3.00
2023-01-23T17:09:17.410Z,3.10
2023-01-23T17:11:48.291Z,3.00
2023-01-23T17:14:26.051Z,3.00
2023-01-23T17:16:55.618Z,3.00
2023-01-23T17:19:31.748Z,3.10
2023-01-23T17:22:00.386Z,3.10
2023-01-23T17:24:27.455Z,3.10
2023-01-23T17:26:54.151Z,3.20
2023-01-23T17:29:21.152Z,3.20
2023-01-23T17:31:48.794Z,3.30
2023-01-23T17:34:25.895Z,3.00
2023-01-23T17:36:54.929Z,3.20
2023-01-23T17:39:21.865Z,3.10
2023-01-23T17:41:48.589Z,3.10
2023-01-23T17:44:15.199Z,3.10
2023-01-23T17:46:42.425Z,3.20
2023-01-23T17:49:27.970Z,3.40
2023-01-23T17:51:55.884Z,3.50
2023-01-23T17:54:22.858Z,3.50
2023-01-23T17:56:49.715Z,3.30
2023-01-23T17:59:16.334Z,3.40
2023-01-23T18:01:43.176Z,3.60
2023-01-23T18:04:17.294Z,3.70
2023-01-23T18:06:44.437Z,3.40
2023-01-23T18:09:11.719Z,3.40
2023-01-23T18:11:42.499Z,3.30
2023-01-23T18:14:39.501Z,3.20
2023-01-23T18:17:58.665Z,3.10
2023-01-23T18:20:25.969Z,3.10
2023-01-23T18:22:53.231Z,3.10
2023-01-23T18:25:21.623Z,3.30
2023-01-23T18:27:53.177Z,3.10
2023-01-23T18:30:45.099Z,3.10
2023-01-23T18:33:33.250Z,3.20
2023-01-23T18:36:18.182Z,3.40
2023-01-23T18:39:18.216Z,3.30
2023-01-23T18:42:12.816Z,3.40
2023-01-23T18:44:44.201Z,3.40
2023-01-23T18:47:16.413Z,3.50
2023-01-23T18:49:43.432Z,3.50
2023-01-23T18:52:51.783Z,3.50
2023-01-23T18:55:57.481Z,3.30
2023-01-23T18:58:41.939Z,3.30
2023-01-23T19:01:26.392Z,3.30
2023-01-23T19:03:54.959Z,3.40
2023-01-23T19:06:24.437Z,3.50
2023-01-23T19:08:53.505Z,3.60
2023-01-23T19:11:38.929Z,3.70
2023-01-23T19:14:08.607Z,3.50
2023-01-23T19:16:42.206Z,3.50
2023-01-23T19:19:15.619Z,3.50
2023-01-23T19:21:45.549Z,3.60
2023-01-23T19:24:12.330Z,3.60
2023-01-23T19:26:41.819Z,3.50
2023-01-23T19:29:20.909Z,3.50
2023-01-23T19:32:03.766Z,3.50
2023-01-23T19:34:31.397Z,3.60
2023-01-23T19:36:58.035Z,3.60
2023-01-23T19:39:24.697Z,3.50
2023-01-23T19:41:52.804Z,3.60
2023-01-23T19:44:22.335Z,3.60
2023-01-23T19:46:49.060Z,3.40
2023-01-23T19:49:15.774Z,3.20
2023-01-23T19:51:42.787Z,3.30
2023-01-23T19:54:14.480Z,3.40
2023-01-23T19:56:42.257Z,3.40
2023-01-23T19:59:09.236Z,3.50
2023-01-23T20:01:38.643Z,3.50
2023-01-23T20:04:12.911Z,3.40
2023-01-23T20:06:40.734Z,3.50
2023-01-23T20:09:08.538Z,3.50
2023-01-23T20:11:36.356Z,3.40
2023-01-23T20:14:03.390Z,3.30
2023-01-23T20:16:30.195Z,3.50
2023-01-23T20:18:56.867Z,3.60
2023-01-23T20:21:24.867Z,3.70
2023-01-23T20:23:51.848Z,3.90
2023-01-23T20:26:21.046Z,3.70
2023-01-23T20:28:49.685Z,3.60
2023-01-23T20:31:16.952Z,3.70
2023-01-23T20:33:43.681Z,3.80
2023-01-23T20:36:11.161Z,3.80
2023-01-23T20:38:39.458Z,3.80
2023-01-23T20:41:09.014Z,3.80
2023-01-23T20:43:35.698Z,4.00
2023-01-23T20:46:06.163Z,4.10
2023-01-23T20:48:37.429Z,4.10
2023-01-23T20:51:05.520Z,4.20
2023-01-23T20:53:34.839Z,4.20
2023-01-23T20:56:04.287Z,4.10
2023-01-23T20:58:51.147Z,4.00
2023-01-23T21:01:19.662Z,4.10
2023-01-23T21:03:48.315Z,4.00
2023-01-23T21:06:15.801Z,3.80
2023-01-23T21:08:43.105Z,3.70
2023-01-23T21:11:15.113Z,3.60
2023-01-23T21:13:42.470Z,3.50
2023-01-23T21:16:15.289Z,3.70
2023-01-23T21:18:46.165Z,3.40
2023-01-23T21:21:15.729Z,3.30
2023-01-23T21:23:42.426Z,3.50
2023-01-23T21:26:09.393Z,3.50
2023-01-23T21:28:36.727Z,3.60
2023-01-23T21:31:34.064Z,3.70
2023-01-23T21:34:06.529Z,3.60
2023-01-23T21:36:33.294Z,3.70
2023-01-23T21:38:59.991Z,3.70
2023-01-23T21:41:26.725Z,3.60
2023-01-23T21:43:53.334Z,3.60
2023-01-23T21:46:20.090Z,3.60
2023-01-23T21:48:46.723Z,3.60
2023-01-23T21:51:16.301Z,3.50
2023-01-23T21:53:45.336Z,3.40
2023-01-23T21:56:13.973Z,3.40
2023-01-23T21:58:42.371Z,3.60
2023-01-23T22:01:32.792Z,3.60
2023-01-23T22:04:14.847Z,3.60
2023-01-23T22:06:43.876Z,3.60
2023-01-23T22:09:15.524Z,3.70
2023-01-23T22:11:42.642Z,3.60
2023-01-23T22:14:11.210Z,3.60
2023-01-23T22:16:48.444Z,3.60
2023-01-23T22:19:17.850Z,3.20
2023-01-23T22:21:46.334Z,3.40
2023-01-23T22:24:13.634Z,3.30
2023-01-23T22:26:40.312Z,3.50
2023-01-23T22:29:07.211Z,3.40
2023-01-23T22:31:33.997Z,3.30
2023-01-23T22:34:00.791Z,3.20
2023-01-23T22:36:27.389Z,3.30
2023-01-23T22:38:55.336Z,3.50
2023-01-23T22:41:22.865Z,3.20
2023-01-23T22:43:54.348Z,3.30
2023-01-23T22:46:21.873Z,3.00
2023-01-23T22:48:48.996Z,3.10
2023-01-23T22:51:18.476Z,2.90
2023-01-23T22:53:45.323Z,2.90
2023-01-23T22:56:12.822Z,3.10
2023-01-23T22:58:39.669Z,3.00
2023-01-23T23:01:07.211Z,3.10
2023-01-23T23:03:34.866Z,2.90
2023-01-23T23:06:07.025Z,3.10
2023-01-23T23:08:34.699Z,3.10
2023-01-23T23:11:03.305Z,3.20
2023-01-23T23:13:32.016Z,3.10
2023-01-23T23:16:03.892Z,3.30
2023-01-23T23:18:30.760Z,3.30
2023-01-23T23:21:05.019Z,3.20
2023-01-23T23:23:31.697Z,3.30
2023-01-23T23:25:58.378Z,3.10
2023-01-23T23:28:26.615Z,3.00
2023-01-23T23:30:54.012Z,2.90
2023-01-23T23:33:21.626Z,3.20
2023-01-23T23:35:48.509Z,3.10
2023-01-23T23:38:16.007Z,3.10
2023-01-23T23:40:42.633Z,2.90
2023-01-23T23:43:09.676Z,2.90
2023-01-23T23:45:36.369Z,3.00
2023-01-23T23:48:03.236Z,3.00
2023-01-23T23:50:30.101Z,3.10
2023-01-23T23:52:56.728Z,2.90
2023-01-23T23:55:23.630Z,3.00
2023-01-23T23:57:50.399Z,3.00
